createdAt,value
2022-11-19T00:01:28.808Z,67.42
2022-11-19T00:03:58.866Z,68.08
2022-11-19T00:06:27.928Z,67.75
2022-11-19T00:08:55.409Z,67.75
2022-11-19T00:11:46.591Z,67.86
2022-11-19T00:14:15.509Z,67.65
2022-11-19T00:16:44.399Z,68.01
2022-11-19T00:19:12.000Z,67.73
2022-11-19T00:21:39.032Z,67.79
2022-11-19T00:24:06.527Z,68.08
2022-11-19T00:26:33.530Z,67.33
2022-11-19T00:29:03.240Z,67.82
2022-11-19T00:31:30.165Z,67.69
2022-11-19T00:33:57.180Z,67.64
2022-11-19T00:36:24.200Z,67.69
2022-11-19T00:38:51.217Z,67.73
2022-11-19T00:41:18.661Z,67.68
2022-11-19T00:43:49.168Z,67.56
2022-11-19T00:46:24.406Z,67.93
2022-11-19T00:48:53.654Z,67.81
2022-11-19T00:51:22.185Z,67.98
2022-11-19T00:53:49.400Z,68.11
2022-11-19T00:56:18.850Z,68.54
2022-11-19T00:58:46.947Z,68.03
2022-11-19T01:01:15.738Z,68.08
2022-11-19T01:03:46.346Z,68.44
2022-11-19T01:06:18.855Z,67.51
2022-11-19T01:08:46.618Z,67.97
2022-11-19T01:11:19.505Z,67.94
2022-11-19T01:13:46.527Z,67.71
2022-11-19T01:16:16.343Z,67.51
2022-11-19T01:18:46.122Z,67.92
2022-11-19T01:21:13.714Z,67.47
2022-11-19T01:23:42.333Z,67.61
2022-11-19T01:26:10.762Z,67.42
2022-11-19T01:28:37.931Z,67.95
2022-11-19T01:31:10.311Z,67.85
2022-11-19T01:33:38.618Z,67.31
2022-11-19T01:36:09.303Z,67.75
2022-11-19T01:38:36.770Z,67.94
2022-11-19T01:41:04.977Z,67.52
2022-11-19T01:43:50.156Z,67.88
2022-11-19T01:46:20.062Z,67.89
2022-11-19T01:48:52.493Z,67.79
2022-11-19T01:51:27.487Z,67.74
2022-11-19T01:53:58.360Z,68.03
2022-11-19T01:56:26.258Z,67.27
2022-11-19T01:58:59.304Z,68.11
2022-11-19T02:01:26.512Z,67.97
2022-11-19T02:03:53.672Z,68.04
2022-11-19T02:06:21.123Z,67.72
2022-11-19T02:08:53.772Z,68.00
2022-11-19T02:11:26.492Z,67.88
2022-11-19T02:14:14.787Z,68.09
2022-11-19T02:17:14.134Z,67.96
2022-11-19T02:19:53.312Z,68.23
2022-11-19T02:22:39.098Z,67.99
2022-11-19T02:25:29.154Z,67.61
2022-11-19T02:28:01.581Z,67.74
2022-11-19T02:30:38.929Z,67.53
2022-11-19T02:33:34.866Z,68.06
2022-11-19T02:36:13.854Z,67.83
2022-11-19T02:38:51.234Z,67.97
2022-11-19T02:41:48.109Z,68.74
2022-11-19T02:44:49.909Z,68.30
2022-11-19T02:47:20.991Z,68.84
2022-11-19T02:49:51.596Z,68.87
2022-11-19T02:52:19.015Z,68.33
2022-11-19T02:54:45.971Z,67.92
2022-11-19T02:57:14.210Z,67.66
2022-11-19T03:00:07.447Z,67.93
2022-11-19T03:03:02.158Z,67.44
2022-11-19T03:05:34.380Z,67.34
2022-11-19T03:08:01.873Z,67.25
2022-11-19T03:10:40.096Z,67.93
2022-11-19T03:13:42.712Z,67.66
2022-11-19T03:16:40.467Z,66.74
2022-11-19T03:19:21.190Z,67.00
2022-11-19T03:21:55.070Z,66.86
2022-11-19T03:24:37.861Z,66.99
2022-11-19T03:27:22.395Z,67.46
2022-11-19T03:29:54.830Z,66.52
2022-11-19T03:32:31.414Z,66.94
2022-11-19T03:35:03.134Z,66.71
2022-11-19T03:37:35.331Z,67.21
2022-11-19T03:40:04.999Z,67.14
2022-11-19T03:42:32.539Z,66.40
2022-11-19T03:45:13.828Z,65.95
2022-11-19T03:47:42.418Z,66.18
2022-11-19T03:50:35.841Z,66.15
2022-11-19T03:53:04.574Z,66.19
2022-11-19T03:55:35.943Z,66.08
2022-11-19T03:58:05.632Z,66.47
2022-11-19T04:00:33.396Z,65.93
2022-11-19T04:03:01.122Z,65.92
2022-11-19T04:05:28.244Z,65.58
2022-11-19T04:07:55.187Z,65.34
2022-11-19T04:10:22.232Z,65.23
2022-11-19T04:12:49.250Z,65.36
2022-11-19T04:15:16.871Z,65.37
2022-11-19T04:17:44.054Z,64.98
2022-11-19T04:20:11.281Z,65.00
2022-11-19T04:22:38.239Z,64.55
2022-11-19T04:25:05.750Z,64.96
2022-11-19T04:27:32.921Z,64.77
2022-11-19T04:29:59.799Z,64.96
2022-11-19T04:32:27.540Z,65.83
2022-11-19T04:34:54.478Z,65.42
2022-11-19T04:37:21.420Z,65.72
2022-11-19T04:39:48.388Z,65.63
2022-11-19T04:42:15.409Z,65.99
2022-11-19T04:44:42.442Z,66.36
2022-11-19T04:47:09.427Z,66.19
2022-11-19T04:49:36.372Z,66.38
2022-11-19T04:52:04.013Z,66.18
2022-11-19T04:54:31.004Z,66.84
2022-11-19T04:56:58.230Z,66.74
2022-11-19T04:59:25.317Z,67.03
2022-11-19T05:01:52.450Z,66.75
2022-11-19T05:04:20.015Z,67.02
2022-11-19T05:06:47.013Z,67.30
2022-11-19T05:09:13.963Z,66.54
2022-11-19T05:11:40.881Z,68.03
2022-11-19T05:14:08.269Z,68.08
2022-11-19T05:16:35.273Z,67.50
2022-11-19T05:19:02.172Z,66.80
2022-11-19T05:21:29.278Z,67.40
2022-11-19T05:23:56.274Z,67.46
2022-11-19T05:26:23.252Z,67.47
2022-11-19T05:28:50.190Z,67.61
2022-11-19T05:31:17.180Z,68.29
2022-11-19T05:33:44.194Z,67.49
2022-11-19T05:36:11.193Z,68.05
2022-11-19T05:38:38.410Z,67.81
2022-11-19T05:41:05.485Z,67.62
2022-11-19T05:43:32.646Z,67.96
2022-11-19T05:46:01.377Z,68.23
2022-11-19T05:48:29.524Z,68.30
2022-11-19T05:50:57.993Z,68.68
2022-11-19T05:53:24.996Z,69.60
2022-11-19T05:55:51.999Z,69.25
2022-11-19T05:58:18.992Z,69.07
2022-11-19T06:00:46.131Z,69.17
2022-11-19T06:03:13.188Z,69.41
2022-11-19T06:05:40.825Z,70.31
2022-11-19T06:08:08.382Z,70.36
2022-11-19T06:10:35.313Z,70.15
2022-11-19T06:13:02.593Z,70.22
2022-11-19T06:15:29.629Z,70.88
2022-11-19T06:17:57.126Z,70.31
2022-11-19T06:20:26.014Z,69.94
2022-11-19T06:22:53.111Z,70.09
2022-11-19T06:25:20.408Z,70.23
2022-11-19T06:27:47.619Z,70.03
2022-11-19T06:30:16.234Z,69.85
2022-11-19T06:32:43.722Z,69.57
2022-11-19T06:35:14.526Z,69.35
2022-11-19T06:37:41.753Z,69.34
2022-11-19T06:40:09.423Z,69.51
2022-11-19T06:42:36.503Z,69.00
2022-11-19T06:45:14.670Z,69.57
2022-11-19T06:47:42.449Z,69.34
2022-11-19T06:50:10.787Z,69.40
2022-11-19T06:52:37.834Z,69.21
2022-11-19T06:55:05.241Z,69.58
2022-11-19T06:57:32.243Z,69.23
2022-11-19T06:59:59.564Z,69.76
2022-11-19T07:02:26.552Z,70.08
2022-11-19T07:04:53.597Z,69.90
2022-11-19T07:07:21.688Z,69.81
2022-11-19T07:09:48.695Z,69.89
2022-11-19T07:12:15.695Z,70.09
2022-11-19T07:14:42.787Z,69.35
2022-11-19T07:17:09.934Z,69.33
2022-11-19T07:19:36.902Z,69.42
2022-11-19T07:22:03.881Z,69.79
2022-11-19T07:24:30.851Z,68.83
2022-11-19T07:26:57.807Z,68.69
2022-11-19T07:29:27.931Z,69.66
2022-11-19T07:31:54.911Z,68.67
2022-11-19T07:34:22.226Z,68.68
2022-11-19T07:36:50.612Z,69.11
2022-11-19T07:39:18.451Z,69.02
2022-11-19T07:42:04.327Z,67.01
2022-11-19T07:44:31.285Z,67.58
2022-11-19T07:46:58.689Z,67.12
2022-11-19T07:49:26.481Z,68.04
2022-11-19T07:51:54.721Z,67.55
2022-11-19T07:54:21.834Z,67.74
2022-11-19T07:56:48.793Z,68.82
2022-11-19T07:59:15.939Z,67.94
2022-11-19T08:01:43.774Z,67.48
2022-11-19T08:04:10.980Z,68.50
2022-11-19T08:06:38.676Z,68.23
2022-11-19T08:09:06.056Z,67.93
2022-11-19T08:11:33.276Z,68.51
2022-11-19T08:14:03.658Z,68.53
2022-11-19T08:16:52.227Z,67.89
2022-11-19T08:19:19.677Z,68.00
2022-11-19T08:21:48.079Z,68.16
2022-11-19T08:24:18.530Z,68.79
2022-11-19T08:26:45.954Z,67.87
2022-11-19T08:29:16.705Z,68.36
2022-11-19T08:31:46.133Z,67.67
2022-11-19T08:34:13.404Z,67.74
2022-11-19T08:36:40.610Z,67.95
2022-11-19T08:39:08.216Z,68.25
2022-11-19T08:41:53.601Z,67.70
2022-11-19T08:44:21.789Z,67.50
2022-11-19T08:46:49.092Z,67.35
2022-11-19T08:49:16.075Z,67.15
2022-11-19T08:51:43.007Z,66.21
2022-11-19T08:54:10.198Z,65.75
2022-11-19T08:56:37.228Z,64.90
2022-11-19T08:59:04.421Z,64.81
2022-11-19T09:01:33.064Z,64.75
2022-11-19T09:04:00.028Z,65.70
2022-11-19T09:06:28.712Z,64.10
2022-11-19T09:08:58.854Z,64.45
2022-11-19T09:11:26.051Z,63.84
2022-11-19T09:13:53.158Z,65.54
2022-11-19T09:16:20.141Z,65.43
2022-11-19T09:18:47.440Z,65.36
2022-11-19T09:21:15.164Z,64.87
2022-11-19T09:23:42.929Z,65.58
2022-11-19T09:26:15.393Z,64.38
2022-11-19T09:28:43.242Z,65.00
2022-11-19T09:31:16.046Z,64.94
2022-11-19T09:33:46.384Z,65.15
2022-11-19T09:36:13.820Z,65.21
2022-11-19T09:38:41.342Z,65.77
2022-11-19T09:41:49.713Z,65.42
2022-11-19T09:44:31.693Z,65.28
2022-11-19T09:47:17.254Z,65.44
2022-11-19T09:50:19.844Z,64.55
2022-11-19T09:52:59.308Z,66.04
2022-11-19T09:55:37.678Z,65.13
2022-11-19T09:58:12.249Z,64.38
2022-11-19T10:00:39.250Z,63.94
2022-11-19T10:03:14.462Z,63.69
2022-11-19T10:06:13.104Z,63.00
2022-11-19T10:09:06.916Z,62.88
2022-11-19T10:11:46.066Z,63.58
2022-11-19T10:14:28.290Z,63.58
2022-11-19T10:17:16.678Z,61.79
2022-11-19T10:19:57.244Z,61.02
2022-11-19T10:22:39.205Z,62.13
2022-11-19T10:25:17.497Z,61.89
2022-11-19T10:27:55.550Z,62.85
2022-11-19T10:30:30.392Z,64.18
2022-11-19T10:33:29.672Z,64.13
2022-11-19T10:36:11.207Z,64.26
2022-11-19T10:39:07.796Z,64.33
2022-11-19T10:41:46.027Z,64.75
2022-11-19T10:44:40.497Z,62.36
2022-11-19T10:47:22.762Z,64.28
2022-11-19T10:49:54.536Z,64.01
2022-11-19T10:52:29.504Z,63.23
2022-11-19T10:55:33.902Z,63.29
2022-11-19T10:58:33.872Z,63.28
2022-11-19T11:01:03.947Z,61.58
2022-11-19T11:03:49.881Z,61.53
2022-11-19T11:06:17.779Z,61.93
2022-11-19T11:09:02.845Z,61.99
2022-11-19T11:11:51.428Z,61.66
2022-11-19T11:14:40.106Z,60.31
2022-11-19T11:17:19.650Z,60.52
2022-11-19T11:19:58.013Z,60.09
2022-11-19T11:22:26.594Z,60.43
2022-11-19T11:24:54.062Z,60.46
2022-11-19T11:27:25.357Z,60.64
2022-11-19T11:30:13.914Z,60.36
2022-11-19T11:32:42.088Z,60.08
2022-11-19T11:35:46.070Z,59.96
2022-11-19T11:38:23.355Z,58.01
2022-11-19T11:41:44.051Z,58.85
2022-11-19T11:44:02.759Z,56.46
2022-11-19T11:46:43.733Z,57.50
2022-11-19T11:49:25.887Z,56.67
2022-11-19T11:52:24.048Z,57.32
2022-11-19T11:55:08.415Z,57.76
2022-11-19T11:57:37.907Z,56.95
2022-11-19T12:00:24.955Z,56.04
2022-11-19T12:03:10.349Z,56.05
2022-11-19T12:06:02.133Z,55.43
2022-11-19T12:08:38.311Z,54.18
2022-11-19T12:11:22.764Z,55.06
2022-11-19T12:14:06.581Z,55.00
2022-11-19T12:17:13.623Z,52.40
2022-11-19T12:20:24.090Z,52.99
2022-11-19T12:23:23.154Z,52.33
2022-11-19T12:26:12.945Z,52.92
2022-11-19T12:29:05.718Z,52.66
2022-11-19T12:31:55.981Z,51.10
2022-11-19T12:34:44.965Z,52.21
2022-11-19T12:37:39.823Z,51.77
2022-11-19T12:41:05.490Z,52.83
2022-11-19T12:43:49.503Z,52.22
2022-11-19T12:46:20.925Z,52.74
2022-11-19T12:48:48.724Z,54.01
2022-11-19T12:51:46.415Z,53.17
2022-11-19T12:54:30.217Z,55.17
2022-11-19T12:57:43.113Z,53.50
2022-11-19T13:00:13.303Z,53.85
2022-11-19T13:03:01.878Z,53.46
2022-11-19T13:05:50.543Z,54.05
2022-11-19T13:08:54.864Z,53.80
2022-11-19T13:11:52.224Z,54.77
2022-11-19T13:14:38.617Z,52.40
2022-11-19T13:17:15.547Z,54.72
2022-11-19T13:19:46.061Z,53.86
2022-11-19T13:22:47.396Z,53.34
2022-11-19T13:25:24.593Z,54.95
2022-11-19T13:27:55.067Z,54.27
2022-11-19T13:30:27.161Z,54.02
2022-11-19T13:32:54.065Z,54.42
2022-11-19T13:35:25.806Z,54.85
2022-11-19T13:37:58.765Z,53.56
2022-11-19T13:40:44.622Z,53.93
2022-11-19T13:43:41.218Z,54.85
2022-11-19T13:46:19.830Z,54.12
2022-11-19T13:48:58.936Z,54.54
2022-11-19T13:51:44.560Z,54.28
2022-11-19T13:54:41.110Z,53.60
2022-11-19T13:57:10.165Z,54.14
2022-11-19T13:59:40.729Z,55.72
2022-11-19T14:03:09.752Z,55.21
2022-11-19T14:05:45.251Z,55.72
2022-11-19T14:08:20.944Z,56.32
2022-11-19T14:11:09.371Z,56.00
2022-11-19T14:14:39.047Z,56.99
2022-11-19T14:17:38.955Z,56.68
2022-11-19T14:20:56.539Z,57.00
2022-11-19T14:24:08.008Z,57.06
2022-11-19T14:26:40.957Z,57.49
2022-11-19T14:29:26.715Z,57.39
2022-11-19T14:32:08.716Z,58.00
2022-11-19T14:34:40.500Z,58.09
2022-11-19T14:37:21.246Z,57.59
2022-11-19T14:39:55.482Z,57.77
2022-11-19T14:42:23.505Z,58.30
2022-11-19T14:45:05.474Z,58.98
2022-11-19T14:47:43.743Z,58.38
2022-11-19T14:50:28.204Z,59.57
2022-11-19T14:52:58.210Z,59.62
2022-11-19T14:55:28.806Z,59.87
2022-11-19T14:57:58.543Z,59.55
2022-11-19T15:00:36.141Z,60.39
2022-11-19T15:03:06.158Z,60.41
2022-11-19T15:05:42.359Z,61.28
2022-11-19T15:08:18.341Z,61.45
2022-11-19T15:11:03.830Z,61.96
2022-11-19T15:13:40.903Z,61.74
2022-11-19T15:16:20.828Z,60.67
2022-11-19T15:19:06.375Z,60.95
2022-11-19T15:21:52.068Z,61.60
2022-11-19T15:24:50.403Z,62.06
2022-11-19T15:27:37.116Z,62.48
2022-11-19T15:30:17.635Z,62.36
2022-11-19T15:32:55.782Z,62.87
2022-11-19T15:35:56.477Z,62.94
2022-11-19T15:38:23.367Z,62.83
2022-11-19T15:40:55.261Z,63.25
2022-11-19T15:43:22.297Z,62.75
2022-11-19T15:46:01.805Z,63.32
2022-11-19T15:49:06.226Z,63.25
2022-11-19T15:51:51.275Z,62.88
2022-11-19T15:54:18.254Z,62.62
2022-11-19T15:56:51.046Z,63.13
2022-11-19T15:59:20.670Z,62.77
2022-11-19T16:01:59.918Z,63.17
2022-11-19T16:04:39.790Z,63.33
2022-11-19T16:07:09.368Z,63.23
2022-11-19T16:09:37.779Z,63.09
2022-11-19T16:12:24.098Z,63.46
2022-11-19T16:15:11.264Z,63.60
2022-11-19T16:17:46.336Z,64.34
2022-11-19T16:20:13.430Z,63.69
2022-11-19T16:22:46.006Z,64.27
2022-11-19T16:25:18.961Z,63.94
2022-11-19T16:27:46.535Z,64.75
2022-11-19T16:30:21.312Z,64.86
2022-11-19T16:32:49.364Z,64.68
2022-11-19T16:35:32.953Z,64.77
2022-11-19T16:38:01.148Z,64.88
2022-11-19T16:40:49.517Z,64.71
2022-11-19T16:43:17.124Z,64.98
2022-11-19T16:45:46.537Z,64.70
2022-11-19T16:48:50.951Z,64.87
2022-11-19T16:51:32.709Z,64.89
2022-11-19T16:54:00.020Z,64.81
2022-11-19T16:56:32.997Z,65.08
2022-11-19T16:59:03.790Z,65.13
2022-11-19T17:01:31.880Z,65.49
2022-11-19T17:04:09.469Z,65.54
2022-11-19T17:06:38.254Z,65.71
2022-11-19T17:09:07.237Z,65.89
2022-11-19T17:12:12.435Z,65.71
2022-11-19T17:14:39.555Z,65.99
2022-11-19T17:17:26.601Z,65.91
2022-11-19T17:19:57.171Z,65.69
2022-11-19T17:22:27.660Z,66.20
2022-11-19T17:24:54.859Z,65.89
2022-11-19T17:27:28.969Z,65.70
2022-11-19T17:30:03.564Z,66.29
2022-11-19T17:32:53.988Z,66.15
2022-11-19T17:35:36.105Z,66.21
2022-11-19T17:38:27.373Z,66.03
2022-11-19T17:40:59.334Z,65.93
2022-11-19T17:43:55.887Z,65.73
2022-11-19T17:46:25.142Z,66.04
2022-11-19T17:48:53.616Z,66.23
2022-11-19T17:51:22.996Z,65.98
2022-11-19T17:53:54.680Z,66.37
2022-11-19T17:56:25.621Z,67.25
2022-11-19T17:58:52.714Z,67.34
2022-11-19T18:01:20.020Z,67.22
2022-11-19T18:03:47.500Z,67.51
2022-11-19T18:06:16.938Z,67.64
2022-11-19T18:08:44.331Z,67.65
2022-11-19T18:11:13.827Z,67.47
2022-11-19T18:13:44.892Z,67.68
2022-11-19T18:16:20.788Z,67.46
2022-11-19T18:18:48.032Z,67.53
2022-11-19T18:21:17.604Z,67.85
2022-11-19T18:23:45.902Z,67.99
2022-11-19T18:26:15.092Z,68.36
2022-11-19T18:28:45.039Z,68.09
2022-11-19T18:31:19.861Z,68.20
2022-11-19T18:33:48.473Z,68.03
2022-11-19T18:36:17.212Z,68.83
2022-11-19T18:38:44.431Z,68.38
2022-11-19T18:41:12.861Z,69.45
2022-11-19T18:43:59.110Z,68.83
2022-11-19T18:46:26.563Z,69.12
2022-11-19T18:48:56.632Z,69.59
2022-11-19T18:51:24.901Z,69.24
2022-11-19T18:53:52.557Z,69.36
2022-11-19T18:56:19.914Z,69.70
2022-11-19T18:58:47.002Z,70.67
2022-11-19T19:01:16.632Z,70.04
2022-11-19T19:03:44.106Z,70.06
2022-11-19T19:06:11.090Z,69.74
2022-11-19T19:08:38.220Z,69.13
2022-11-19T19:11:26.185Z,69.49
2022-11-19T19:13:53.282Z,69.45
2022-11-19T19:16:20.333Z,69.22
2022-11-19T19:18:47.286Z,69.55
2022-11-19T19:21:15.799Z,69.33
2022-11-19T19:23:42.901Z,69.82
2022-11-19T19:26:11.643Z,69.35
2022-11-19T19:28:38.720Z,69.84
2022-11-19T19:31:06.380Z,70.13
2022-11-19T19:33:33.889Z,69.84
2022-11-19T19:36:04.179Z,69.43
2022-11-19T19:38:31.625Z,69.31
2022-11-19T19:41:06.315Z,69.40
2022-11-19T19:43:33.729Z,69.98
2022-11-19T19:46:09.606Z,69.94
2022-11-19T19:48:37.118Z,70.11
2022-11-19T19:51:04.393Z,70.56
2022-11-19T19:53:31.674Z,70.20
2022-11-19T19:56:06.609Z,70.51
2022-11-19T19:58:33.781Z,70.57
2022-11-19T20:01:06.146Z,70.51
2022-11-19T20:03:33.317Z,70.61
2022-11-19T20:06:00.280Z,70.34
2022-11-19T20:08:27.934Z,69.91
2022-11-19T20:10:56.166Z,70.10
2022-11-19T20:13:29.327Z,69.80
2022-11-19T20:15:57.468Z,69.84
2022-11-19T20:18:25.110Z,69.55
2022-11-19T20:20:52.590Z,69.41
2022-11-19T20:23:19.578Z,69.17
2022-11-19T20:25:46.570Z,69.17
2022-11-19T20:28:13.555Z,69.11
2022-11-19T20:30:40.634Z,69.09
2022-11-19T20:33:08.317Z,69.21
2022-11-19T20:35:35.356Z,69.49
2022-11-19T20:38:03.639Z,69.63
2022-11-19T20:40:31.201Z,69.25
2022-11-19T20:43:16.597Z,69.45
2022-11-19T20:45:43.562Z,69.42
2022-11-19T20:48:10.495Z,70.10
2022-11-19T20:50:37.530Z,70.24
2022-11-19T20:53:04.461Z,70.54
2022-11-19T20:55:31.376Z,70.59
2022-11-19T20:57:58.372Z,70.20
2022-11-19T21:00:25.458Z,70.26
2022-11-19T21:02:52.546Z,70.24
2022-11-19T21:05:19.502Z,70.57
2022-11-19T21:07:46.567Z,70.62
2022-11-19T21:10:13.562Z,70.38
2022-11-19T21:13:00.482Z,69.96
2022-11-19T21:15:28.700Z,70.62
2022-11-19T21:17:56.202Z,70.62
2022-11-19T21:20:23.502Z,70.55
2022-11-19T21:22:51.036Z,70.05
2022-11-19T21:25:18.242Z,70.06
2022-11-19T21:27:45.433Z,70.35
2022-11-19T21:30:12.776Z,69.67
2022-11-19T21:32:39.729Z,70.25
2022-11-19T21:35:07.256Z,70.20
2022-11-19T21:37:34.114Z,70.31
2022-11-19T21:40:03.804Z,70.05
2022-11-19T21:42:30.757Z,69.96
2022-11-19T21:44:57.752Z,70.38
2022-11-19T21:47:24.718Z,70.44
2022-11-19T21:49:53.873Z,70.77
2022-11-19T21:52:20.834Z,70.48
2022-11-19T21:54:47.761Z,70.21
2022-11-19T21:57:14.691Z,70.70
2022-11-19T21:59:41.701Z,70.67
2022-11-19T22:02:09.453Z,70.79
2022-11-19T22:04:36.448Z,71.26
2022-11-19T22:07:04.286Z,70.56
2022-11-19T22:09:31.284Z,70.01
2022-11-19T22:11:58.279Z,70.81
2022-11-19T22:14:25.234Z,71.26
2022-11-19T22:16:54.892Z,70.55
2022-11-19T22:19:22.122Z,71.66
2022-11-19T22:21:49.385Z,71.69
2022-11-19T22:26:57.135Z,71.00
2022-11-19T22:29:24.337Z,70.93
2022-11-19T22:31:51.549Z,71.10
2022-11-19T22:34:18.749Z,70.97
2022-11-19T22:36:45.883Z,70.54
2022-11-19T22:39:15.583Z,71.17
2022-11-19T22:41:42.507Z,69.97
2022-11-19T22:44:09.614Z,70.85
2022-11-19T22:46:36.713Z,70.64
2022-11-19T22:49:03.740Z,70.86
2022-11-19T22:51:30.917Z,70.58
2022-11-19T22:53:57.866Z,71.47
2022-11-19T22:56:29.853Z,71.27
2022-11-19T22:58:58.590Z,71.08
2022-11-19T23:01:28.267Z,71.49
2022-11-19T23:03:56.982Z,71.24
2022-11-19T23:06:24.467Z,70.89
2022-11-19T23:08:52.369Z,70.67
2022-11-19T23:11:41.589Z,71.00
2022-11-19T23:14:11.410Z,71.19
2022-11-19T23:16:39.573Z,70.71
2022-11-19T23:19:07.229Z,70.96
2022-11-19T23:21:34.251Z,70.95
2022-11-19T23:24:01.457Z,70.42
2022-11-19T23:26:30.961Z,70.71
2022-11-19T23:28:58.258Z,70.54
2022-11-19T23:31:29.884Z,70.67
2022-11-19T23:33:59.289Z,70.40
2022-11-19T23:36:29.670Z,70.74
2022-11-19T23:38:57.895Z,70.67
2022-11-19T23:41:25.078Z,71.07
2022-11-19T23:43:55.168Z,71.25
2022-11-19T23:46:27.004Z,71.11
2022-11-19T23:48:56.326Z,71.54
2022-11-19T23:51:25.975Z,70.77
2022-11-19T23:53:53.378Z,71.16
2022-11-19T23:56:21.746Z,71.11
2022-11-19T23:58:49.317Z,71.31
